sensor_id;sensor_type;location;lat;lon;timestamp;P1;durP1;ratioP1;P2;durP2;ratioP2
53666;SDS011;39568;51.026;5.468;2023-05-02T00:01:21;92.72;;;41.67;;
53666;SDS011;39568;51.026;5.468;2023-05-02T00:03:48;84.18;;;35.55;;
53666;SDS011;39568;51.026;5.468;2023-05-02T00:06:15;88.30;;;42.67;;
53666;SDS011;39568;51.026;5.468;2023-05-02T00:08:47;84.40;;;38.25;;
53666;SDS011;39568;51.026;5.468;2023-05-02T00:11:14;59.07;;;27.93;;
53666;SDS011;39568;51.026;5.468;2023-05-02T00:13:40;86.43;;;37.47;;
53666;SDS011;39568;51.026;5.468;2023-05-02T00:16:08;94.90;;;41.10;;
53666;SDS011;39568;51.026;5.468;2023-05-02T00:18:35;95.65;;;43.53;;
53666;SDS011;39568;51.026;5.468;2023-05-02T00:21:03;95.50;;;44.53;;
53666;SDS011;39568;51.026;5.468;2023-05-02T00:23:31;87.32;;;38.63;;
53666;SDS011;39568;51.026;5.468;2023-05-02T00:25:59;77.20;;;37.67;;
53666;SDS011;39568;51.026;5.468;2023-05-02T00:28:26;104.55;;;47.47;;
53666;SDS011;39568;51.026;5.468;2023-05-02T00:30:56;99.90;;;48.60;;
53666;SDS011;39568;51.026;5.468;2023-05-02T00:33:23;96.15;;;46.67;;
53666;SDS011;39568;51.026;5.468;2023-05-02T00:35:50;105.47;;;45.50;;
53666;SDS011;39568;51.026;5.468;2023-05-02T00:38:16;101.13;;;48.08;;
53666;SDS011;39568;51.026;5.468;2023-05-02T00:40:43;96.85;;;43.63;;
53666;SDS011;39568;51.026;5.468;2023-05-02T00:43:13;94.50;;;40.38;;
53666;SDS011;39568;51.026;5.468;2023-05-02T00:45:40;105.55;;;42.08;;
53666;SDS011;39568;51.026;5.468;2023-05-02T00:48:08;108.47;;;42.20;;
53666;SDS011;39568;51.026;5.468;2023-05-02T00:50:36;82.47;;;34.72;;
53666;SDS011;39568;51.026;5.468;2023-05-02T00:53:04;83.65;;;34.83;;
53666;SDS011;39568;51.026;5.468;2023-05-02T00:55:31;103.55;;;42.47;;
53666;SDS011;39568;51.026;5.468;2023-05-02T00:57:59;107.22;;;45.20;;
53666;SDS011;39568;51.026;5.468;2023-05-02T01:00:29;105.03;;;44.28;;
53666;SDS011;39568;51.026;5.468;2023-05-02T01:03:04;106.00;;;48.55;;
53666;SDS011;39568;51.026;5.468;2023-05-02T01:05:40;105.88;;;47.40;;
53666;SDS011;39568;51.026;5.468;2023-05-02T01:08:16;96.72;;;40.10;;
53666;SDS011;39568;51.026;5.468;2023-05-02T01:10:51;111.40;;;47.47;;
53666;SDS011;39568;51.026;5.468;2023-05-02T01:13:27;104.05;;;43.10;;
53666;SDS011;39568;51.026;5.468;2023-05-02T01:18:27;111.13;;;51.53;;
53666;SDS011;39568;51.026;5.468;2023-05-02T01:23:27;109.75;;;51.35;;
53666;SDS011;39568;51.026;5.468;2023-05-02T01:26:02;102.50;;;48.83;;
53666;SDS011;39568;51.026;5.468;2023-05-02T01:31:27;97.32;;;46.25;;
53666;SDS011;39568;51.026;5.468;2023-05-02T01:33:58;98.05;;;45.78;;
53666;SDS011;39568;51.026;5.468;2023-05-02T01:36:27;105.65;;;46.38;;
53666;SDS011;39568;51.026;5.468;2023-05-02T01:38:56;99.07;;;43.40;;
53666;SDS011;39568;51.026;5.468;2023-05-02T01:41:25;90.38;;;43.03;;
53666;SDS011;39568;51.026;5.468;2023-05-02T01:43:58;87.65;;;41.10;;
53666;SDS011;39568;51.026;5.468;2023-05-02T01:46:29;93.93;;;40.65;;
53666;SDS011;39568;51.026;5.468;2023-05-02T01:48:58;77.80;;;34.75;;
53666;SDS011;39568;51.026;5.468;2023-05-02T01:51:29;96.78;;;42.08;;
53666;SDS011;39568;51.026;5.468;2023-05-02T01:54:03;91.38;;;40.08;;
53666;SDS011;39568;51.026;5.468;2023-05-02T01:56:33;94.95;;;43.25;;
53666;SDS011;39568;51.026;5.468;2023-05-02T01:59:03;98.93;;;39.92;;
53666;SDS011;39568;51.026;5.468;2023-05-02T02:01:34;92.25;;;42.17;;
53666;SDS011;39568;51.026;5.468;2023-05-02T02:04:02;91.18;;;43.35;;
53666;SDS011;39568;51.026;5.468;2023-05-02T02:06:31;81.35;;;34.30;;
53666;SDS011;39568;51.026;5.468;2023-05-02T02:08:58;84.50;;;37.53;;
53666;SDS011;39568;51.026;5.468;2023-05-02T02:11:25;81.30;;;36.38;;
53666;SDS011;39568;51.026;5.468;2023-05-02T02:14:00;79.72;;;37.45;;
53666;SDS011;39568;51.026;5.468;2023-05-02T02:16:32;71.75;;;33.05;;
53666;SDS011;39568;51.026;5.468;2023-05-02T02:19:03;85.25;;;35.83;;
53666;SDS011;39568;51.026;5.468;2023-05-02T02:21:33;75.20;;;32.67;;
53666;SDS011;39568;51.026;5.468;2023-05-02T02:24:01;73.30;;;26.48;;
53666;SDS011;39568;51.026;5.468;2023-05-02T02:26:29;81.32;;;37.90;;
53666;SDS011;39568;51.026;5.468;2023-05-02T02:28:56;89.80;;;38.95;;
53666;SDS011;39568;51.026;5.468;2023-05-02T02:31:30;85.65;;;39.13;;
53666;SDS011;39568;51.026;5.468;2023-05-02T02:33:57;80.68;;;38.58;;
53666;SDS011;39568;51.026;5.468;2023-05-02T02:36:31;73.57;;;34.42;;
53666;SDS011;39568;51.026;5.468;2023-05-02T02:39:04;84.13;;;40.13;;
53666;SDS011;39568;51.026;5.468;2023-05-02T02:41:42;77.80;;;36.72;;
53666;SDS011;39568;51.026;5.468;2023-05-02T02:44:19;82.75;;;40.97;;
53666;SDS011;39568;51.026;5.468;2023-05-02T02:46:59;80.13;;;35.80;;
53666;SDS011;39568;51.026;5.468;2023-05-02T02:49:31;88.13;;;38.90;;
53666;SDS011;39568;51.026;5.468;2023-05-02T02:52:04;81.95;;;39.22;;
53666;SDS011;39568;51.026;5.468;2023-05-02T02:54:38;84.68;;;41.45;;
53666;SDS011;39568;51.026;5.468;2023-05-02T02:57:13;84.32;;;39.35;;
53666;SDS011;39568;51.026;5.468;2023-05-02T02:59:45;80.97;;;37.92;;
53666;SDS011;39568;51.026;5.468;2023-05-02T03:02:21;83.65;;;42.58;;
53666;SDS011;39568;51.026;5.468;2023-05-02T03:04:54;91.60;;;42.33;;
53666;SDS011;39568;51.026;5.468;2023-05-02T03:07:22;88.78;;;42.38;;
53666;SDS011;39568;51.026;5.468;2023-05-02T03:09:49;87.55;;;41.13;;
53666;SDS011;39568;51.026;5.468;2023-05-02T03:12:16;97.68;;;44.10;;
53666;SDS011;39568;51.026;5.468;2023-05-02T03:15:17;88.97;;;41.33;;
53666;SDS011;39568;51.026;5.468;2023-05-02T03:17:51;98.25;;;43.80;;
53666;SDS011;39568;51.026;5.468;2023-05-02T03:20:19;99.85;;;43.55;;
53666;SDS011;39568;51.026;5.468;2023-05-02T03:22:46;102.63;;;43.88;;
53666;SDS011;39568;51.026;5.468;2023-05-02T03:25:13;101.10;;;45.95;;
53666;SDS011;39568;51.026;5.468;2023-05-02T03:27:42;88.22;;;36.80;;
53666;SDS011;39568;51.026;5.468;2023-05-02T03:30:09;95.22;;;40.90;;
53666;SDS011;39568;51.026;5.468;2023-05-02T03:32:38;96.20;;;43.20;;
53666;SDS011;39568;51.026;5.468;2023-05-02T03:35:05;95.20;;;43.70;;
53666;SDS011;39568;51.026;5.468;2023-05-02T03:37:32;77.63;;;32.58;;
53666;SDS011;39568;51.026;5.468;2023-05-02T03:39:59;78.40;;;34.03;;
53666;SDS011;39568;51.026;5.468;2023-05-02T03:42:27;68.78;;;33.67;;
53666;SDS011;39568;51.026;5.468;2023-05-02T03:44:53;75.82;;;35.00;;
53666;SDS011;39568;51.026;5.468;2023-05-02T03:47:21;75.82;;;34.95;;
53666;SDS011;39568;51.026;5.468;2023-05-02T03:49:49;87.82;;;40.92;;
53666;SDS011;39568;51.026;5.468;2023-05-02T03:52:17;91.18;;;44.80;;
53666;SDS011;39568;51.026;5.468;2023-05-02T03:54:46;84.57;;;41.63;;
53666;SDS011;39568;51.026;5.468;2023-05-02T03:57:13;75.53;;;33.47;;
53666;SDS011;39568;51.026;5.468;2023-05-02T03:59:40;76.30;;;37.08;;
53666;SDS011;39568;51.026;5.468;2023-05-02T04:02:09;86.55;;;38.42;;
53666;SDS011;39568;51.026;5.468;2023-05-02T04:04:36;56.90;;;26.60;;
53666;SDS011;39568;51.026;5.468;2023-05-02T04:07:05;46.55;;;23.10;;
53666;SDS011;39568;51.026;5.468;2023-05-02T04:09:32;31.10;;;17.27;;
53666;SDS011;39568;51.026;5.468;2023-05-02T04:12:00;31.35;;;17.45;;
53666;SDS011;39568;51.026;5.468;2023-05-02T04:14:30;32.95;;;16.70;;
53666;SDS011;39568;51.026;5.468;2023-05-02T04:16:58;33.38;;;16.83;;
53666;SDS011;39568;51.026;5.468;2023-05-02T04:19:25;32.47;;;17.20;;
53666;SDS011;39568;51.026;5.468;2023-05-02T04:21:52;29.40;;;16.58;;
53666;SDS011;39568;51.026;5.468;2023-05-02T04:24:20;37.22;;;17.73;;
53666;SDS011;39568;51.026;5.468;2023-05-02T04:26:47;37.65;;;18.17;;
53666;SDS011;39568;51.026;5.468;2023-05-02T04:29:13;36.05;;;20.23;;
53666;SDS011;39568;51.026;5.468;2023-05-02T04:31:40;39.50;;;20.20;;
53666;SDS011;39568;51.026;5.468;2023-05-02T04:34:07;44.03;;;23.25;;
53666;SDS011;39568;51.026;5.468;2023-05-02T04:36:34;41.80;;;22.23;;
53666;SDS011;39568;51.026;5.468;2023-05-02T04:39:02;50.15;;;23.98;;
53666;SDS011;39568;51.026;5.468;2023-05-02T04:41:36;50.08;;;22.75;;
53666;SDS011;39568;51.026;5.468;2023-05-02T04:44:03;40.88;;;23.60;;
53666;SDS011;39568;51.026;5.468;2023-05-02T04:46:30;40.63;;;22.08;;
53666;SDS011;39568;51.026;5.468;2023-05-02T04:48:57;38.08;;;20.38;;
53666;SDS011;39568;51.026;5.468;2023-05-02T04:51:23;40.83;;;21.95;;
53666;SDS011;39568;51.026;5.468;2023-05-02T04:53:55;36.03;;;21.02;;
53666;SDS011;39568;51.026;5.468;2023-05-02T04:56:29;40.47;;;21.55;;
53666;SDS011;39568;51.026;5.468;2023-05-02T04:58:57;44.38;;;22.80;;
53666;SDS011;39568;51.026;5.468;2023-05-02T05:01:24;35.05;;;18.50;;
53666;SDS011;39568;51.026;5.468;2023-05-02T05:03:51;37.88;;;19.92;;
53666;SDS011;39568;51.026;5.468;2023-05-02T05:06:19;39.25;;;20.35;;
53666;SDS011;39568;51.026;5.468;2023-05-02T05:08:46;35.45;;;20.02;;
53666;SDS011;39568;51.026;5.468;2023-05-02T05:11:13;36.35;;;18.33;;
53666;SDS011;39568;51.026;5.468;2023-05-02T05:13:40;31.45;;;15.48;;
53666;SDS011;39568;51.026;5.468;2023-05-02T05:16:13;27.60;;;16.48;;
53666;SDS011;39568;51.026;5.468;2023-05-02T05:18:40;31.80;;;16.70;;
53666;SDS011;39568;51.026;5.468;2023-05-02T05:21:09;28.33;;;16.13;;
53666;SDS011;39568;51.026;5.468;2023-05-02T05:23:36;26.25;;;15.57;;
53666;SDS011;39568;51.026;5.468;2023-05-02T05:26:09;24.63;;;15.00;;
53666;SDS011;39568;51.026;5.468;2023-05-02T05:28:37;35.28;;;15.95;;
53666;SDS011;39568;51.026;5.468;2023-05-02T05:31:04;27.83;;;16.33;;
53666;SDS011;39568;51.026;5.468;2023-05-02T05:33:33;23.63;;;14.68;;
53666;SDS011;39568;51.026;5.468;2023-05-02T05:36:04;31.38;;;14.93;;
53666;SDS011;39568;51.026;5.468;2023-05-02T05:38:31;26.27;;;13.98;;
53666;SDS011;39568;51.026;5.468;2023-05-02T05:41:01;19.67;;;13.60;;
53666;SDS011;39568;51.026;5.468;2023-05-02T05:43:29;26.42;;;14.43;;
53666;SDS011;39568;51.026;5.468;2023-05-02T05:45:55;26.25;;;14.30;;
53666;SDS011;39568;51.026;5.468;2023-05-02T05:48:22;21.77;;;14.70;;
53666;SDS011;39568;51.026;5.468;2023-05-02T05:50:50;28.05;;;15.57;;
53666;SDS011;39568;51.026;5.468;2023-05-02T05:53:20;18.75;;;11.50;;
53666;SDS011;39568;51.026;5.468;2023-05-02T05:55:49;26.58;;;13.00;;
53666;SDS011;39568;51.026;5.468;2023-05-02T05:58:16;27.35;;;14.10;;
53666;SDS011;39568;51.026;5.468;2023-05-02T06:00:43;21.90;;;13.55;;
53666;SDS011;39568;51.026;5.468;2023-05-02T06:03:09;22.38;;;12.68;;
53666;SDS011;39568;51.026;5.468;2023-05-02T06:05:36;23.77;;;12.95;;
53666;SDS011;39568;51.026;5.468;2023-05-02T06:08:07;22.05;;;12.13;;
53666;SDS011;39568;51.026;5.468;2023-05-02T06:10:34;14.70;;;10.10;;
53666;SDS011;39568;51.026;5.468;2023-05-02T06:13:03;22.23;;;9.85;;
53666;SDS011;39568;51.026;5.468;2023-05-02T06:15:31;19.75;;;9.30;;
53666;SDS011;39568;51.026;5.468;2023-05-02T06:17:58;12.07;;;7.72;;
53666;SDS011;39568;51.026;5.468;2023-05-02T06:20:27;7.35;;;4.78;;
53666;SDS011;39568;51.026;5.468;2023-05-02T06:23:13;15.85;;;6.22;;
53666;SDS011;39568;51.026;5.468;2023-05-02T06:25:40;16.88;;;6.85;;
53666;SDS011;39568;51.026;5.468;2023-05-02T06:28:12;8.93;;;5.85;;
53666;SDS011;39568;51.026;5.468;2023-05-02T06:30:38;9.27;;;5.18;;
53666;SDS011;39568;51.026;5.468;2023-05-02T06:33:08;11.95;;;5.88;;
53666;SDS011;39568;51.026;5.468;2023-05-02T06:35:49;15.48;;;6.43;;
53666;SDS011;39568;51.026;5.468;2023-05-02T06:40:44;11.40;;;5.32;;
53666;SDS011;39568;51.026;5.468;2023-05-02T06:43:15;7.28;;;4.28;;
53666;SDS011;39568;51.026;5.468;2023-05-02T06:45:46;9.50;;;4.63;;
53666;SDS011;39568;51.026;5.468;2023-05-02T06:48:12;12.50;;;3.88;;
53666;SDS011;39568;51.026;5.468;2023-05-02T06:50:39;10.48;;;4.35;;
53666;SDS011;39568;51.026;5.468;2023-05-02T06:53:06;12.68;;;3.85;;
53666;SDS011;39568;51.026;5.468;2023-05-02T06:55:34;9.30;;;3.40;;
53666;SDS011;39568;51.026;5.468;2023-05-02T06:58:00;7.32;;;3.28;;
53666;SDS011;39568;51.026;5.468;2023-05-02T07:00:27;10.80;;;2.53;;
53666;SDS011;39568;51.026;5.468;2023-05-02T07:02:54;8.10;;;3.30;;
53666;SDS011;39568;51.026;5.468;2023-05-02T07:05:21;9.40;;;3.05;;
53666;SDS011;39568;51.026;5.468;2023-05-02T07:07:47;4.93;;;3.20;;
53666;SDS011;39568;51.026;5.468;2023-05-02T07:10:14;6.55;;;3.03;;
53666;SDS011;39568;51.026;5.468;2023-05-02T07:12:42;9.48;;;2.60;;
53666;SDS011;39568;51.026;5.468;2023-05-02T07:15:09;3.22;;;2.15;;
53666;SDS011;39568;51.026;5.468;2023-05-02T07:17:37;7.10;;;2.80;;
53666;SDS011;39568;51.026;5.468;2023-05-02T07:20:08;10.90;;;2.78;;
53666;SDS011;39568;51.026;5.468;2023-05-02T07:22:36;3.78;;;2.30;;
53666;SDS011;39568;51.026;5.468;2023-05-02T07:25:02;6.13;;;2.53;;
53666;SDS011;39568;51.026;5.468;2023-05-02T07:27:29;5.28;;;2.10;;
53666;SDS011;39568;51.026;5.468;2023-05-02T07:29:57;15.55;;;2.67;;
53666;SDS011;39568;51.026;5.468;2023-05-02T07:32:25;9.82;;;2.45;;
53666;SDS011;39568;51.026;5.468;2023-05-02T07:34:52;6.80;;;1.67;;
53666;SDS011;39568;51.026;5.468;2023-05-02T07:37:21;5.28;;;2.35;;
53666;SDS011;39568;51.026;5.468;2023-05-02T07:39:47;2.53;;;2.33;;
53666;SDS011;39568;51.026;5.468;2023-05-02T07:42:16;5.03;;;1.98;;
53666;SDS011;39568;51.026;5.468;2023-05-02T07:44:43;8.18;;;1.92;;
53666;SDS011;39568;51.026;5.468;2023-05-02T07:47:11;6.70;;;1.40;;
53666;SDS011;39568;51.026;5.468;2023-05-02T07:49:38;4.18;;;1.52;;
53666;SDS011;39568;51.026;5.468;2023-05-02T07:52:04;2.65;;;1.52;;
53666;SDS011;39568;51.026;5.468;2023-05-02T07:54:31;2.95;;;1.20;;
53666;SDS011;39568;51.026;5.468;2023-05-02T07:56:57;5.00;;;1.73;;
53666;SDS011;39568;51.026;5.468;2023-05-02T07:59:28;4.00;;;1.58;;
53666;SDS011;39568;51.026;5.468;2023-05-02T08:01:55;2.78;;;1.83;;
53666;SDS011;39568;51.026;5.468;2023-05-02T08:04:23;3.38;;;1.73;;
53666;SDS011;39568;51.026;5.468;2023-05-02T08:06:50;5.38;;;1.50;;
53666;SDS011;39568;51.026;5.468;2023-05-02T08:09:19;3.22;;;1.27;;
53666;SDS011;39568;51.026;5.468;2023-05-02T08:11:53;4.45;;;1.67;;
53666;SDS011;39568;51.026;5.468;2023-05-02T08:14:24;4.00;;;0.93;;
53666;SDS011;39568;51.026;5.468;2023-05-02T08:16:50;4.13;;;1.30;;
53666;SDS011;39568;51.026;5.468;2023-05-02T08:19:18;4.20;;;1.48;;
53666;SDS011;39568;51.026;5.468;2023-05-02T08:21:46;1.40;;;1.30;;
53666;SDS011;39568;51.026;5.468;2023-05-02T08:24:13;8.90;;;1.45;;
53666;SDS011;39568;51.026;5.468;2023-05-02T08:26:42;4.93;;;1.70;;
53666;SDS011;39568;51.026;5.468;2023-05-02T08:29:09;5.60;;;1.50;;
53666;SDS011;39568;51.026;5.468;2023-05-02T08:31:36;3.13;;;1.50;;
53666;SDS011;39568;51.026;5.468;2023-05-02T08:34:04;4.65;;;1.02;;
53666;SDS011;39568;51.026;5.468;2023-05-02T08:36:31;3.50;;;1.60;;
53666;SDS011;39568;51.026;5.468;2023-05-02T08:38:59;1.33;;;0.82;;
53666;SDS011;39568;51.026;5.468;2023-05-02T08:41:26;3.70;;;1.40;;
53666;SDS011;39568;51.026;5.468;2023-05-02T08:43:57;4.38;;;1.30;;
53666;SDS011;39568;51.026;5.468;2023-05-02T08:46:25;6.18;;;1.40;;
53666;SDS011;39568;51.026;5.468;2023-05-02T08:48:53;6.90;;;2.03;;
53666;SDS011;39568;51.026;5.468;2023-05-02T08:51:26;5.40;;;1.73;;
53666;SDS011;39568;51.026;5.468;2023-05-02T08:53:53;4.07;;;1.40;;
53666;SDS011;39568;51.026;5.468;2023-05-02T08:56:22;3.88;;;1.20;;
53666;SDS011;39568;51.026;5.468;2023-05-02T08:58:50;7.55;;;1.77;;
53666;SDS011;39568;51.026;5.468;2023-05-02T09:01:17;8.50;;;1.80;;
53666;SDS011;39568;51.026;5.468;2023-05-02T09:03:47;5.65;;;1.65;;
53666;SDS011;39568;51.026;5.468;2023-05-02T09:06:14;11.85;;;2.47;;
53666;SDS011;39568;51.026;5.468;2023-05-02T09:08:42;9.57;;;1.67;;
53666;SDS011;39568;51.026;5.468;2023-05-02T09:11:10;2.15;;;1.02;;
53666;SDS011;39568;51.026;5.468;2023-05-02T09:13:39;8.27;;;2.05;;
53666;SDS011;39568;51.026;5.468;2023-05-02T09:16:07;4.70;;;1.48;;
53666;SDS011;39568;51.026;5.468;2023-05-02T09:18:35;14.38;;;1.50;;
53666;SDS011;39568;51.026;5.468;2023-05-02T09:21:03;10.98;;;1.63;;
53666;SDS011;39568;51.026;5.468;2023-05-02T09:23:34;6.85;;;1.17;;
53666;SDS011;39568;51.026;5.468;2023-05-02T09:26:09;8.20;;;2.15;;
53666;SDS011;39568;51.026;5.468;2023-05-02T09:28:42;10.30;;;2.30;;
53666;SDS011;39568;51.026;5.468;2023-05-02T09:31:10;2.92;;;2.08;;
53666;SDS011;39568;51.026;5.468;2023-05-02T09:33:42;5.50;;;2.13;;
53666;SDS011;39568;51.026;5.468;2023-05-02T09:36:10;5.80;;;1.50;;
53666;SDS011;39568;51.026;5.468;2023-05-02T09:38:39;5.78;;;1.52;;
53666;SDS011;39568;51.026;5.468;2023-05-02T09:41:06;11.50;;;1.70;;
53666;SDS011;39568;51.026;5.468;2023-05-02T09:43:34;6.07;;;1.58;;
53666;SDS011;39568;51.026;5.468;2023-05-02T09:46:05;6.88;;;1.77;;
53666;SDS011;39568;51.026;5.468;2023-05-02T09:48:51;10.18;;;1.63;;
53666;SDS011;39568;51.026;5.468;2023-05-02T09:51:20;5.43;;;1.58;;
53666;SDS011;39568;51.026;5.468;2023-05-02T09:53:48;4.95;;;1.90;;
53666;SDS011;39568;51.026;5.468;2023-05-02T09:56:15;10.57;;;1.70;;
53666;SDS011;39568;51.026;5.468;2023-05-02T09:58:43;8.93;;;1.33;;
53666;SDS011;39568;51.026;5.468;2023-05-02T10:01:14;6.75;;;1.98;;
53666;SDS011;39568;51.026;5.468;2023-05-02T10:03:45;5.28;;;1.23;;
53666;SDS011;39568;51.026;5.468;2023-05-02T10:06:12;9.23;;;2.03;;
53666;SDS011;39568;51.026;5.468;2023-05-02T10:08:40;8.75;;;2.40;;
53666;SDS011;39568;51.026;5.468;2023-05-02T10:11:14;6.55;;;1.67;;
53666;SDS011;39568;51.026;5.468;2023-05-02T10:13:41;6.20;;;1.77;;
53666;SDS011;39568;51.026;5.468;2023-05-02T10:16:12;6.82;;;1.63;;
53666;SDS011;39568;51.026;5.468;2023-05-02T10:18:51;9.98;;;1.55;;
53666;SDS011;39568;51.026;5.468;2023-05-02T10:21:24;8.05;;;1.42;;
53666;SDS011;39568;51.026;5.468;2023-05-02T10:23:52;7.10;;;1.83;;
53666;SDS011;39568;51.026;5.468;2023-05-02T10:26:23;8.48;;;2.45;;
53666;SDS011;39568;51.026;5.468;2023-05-02T10:28:52;11.00;;;1.85;;
53666;SDS011;39568;51.026;5.468;2023-05-02T10:31:22;6.45;;;1.88;;
53666;SDS011;39568;51.026;5.468;2023-05-02T10:33:49;5.63;;;1.85;;
53666;SDS011;39568;51.026;5.468;2023-05-02T10:36:24;8.35;;;1.80;;
53666;SDS011;39568;51.026;5.468;2023-05-02T10:38:53;6.05;;;2.45;;
53666;SDS011;39568;51.026;5.468;2023-05-02T10:41:23;9.47;;;2.40;;
53666;SDS011;39568;51.026;5.468;2023-05-02T10:43:55;8.32;;;2.80;;
53666;SDS011;39568;51.026;5.468;2023-05-02T10:46:30;15.32;;;2.50;;
53666;SDS011;39568;51.026;5.468;2023-05-02T10:49:01;10.00;;;2.70;;
53666;SDS011;39568;51.026;5.468;2023-05-02T10:51:30;8.93;;;3.40;;
53666;SDS011;39568;51.026;5.468;2023-05-02T10:54:19;10.05;;;3.28;;
53666;SDS011;39568;51.026;5.468;2023-05-02T10:57:06;10.38;;;3.20;;
53666;SDS011;39568;51.026;5.468;2023-05-02T10:59:37;4.55;;;2.03;;
53666;SDS011;39568;51.026;5.468;2023-05-02T11:02:45;9.48;;;2.70;;
53666;SDS011;39568;51.026;5.468;2023-05-02T11:05:13;12.38;;;2.42;;
53666;SDS011;39568;51.026;5.468;2023-05-02T11:07:45;4.03;;;1.95;;
53666;SDS011;39568;51.026;5.468;2023-05-02T11:10:25;9.18;;;2.35;;
53666;SDS011;39568;51.026;5.468;2023-05-02T11:13:03;11.73;;;2.35;;
53666;SDS011;39568;51.026;5.468;2023-05-02T11:18:22;13.48;;;3.15;;
53666;SDS011;39568;51.026;5.468;2023-05-02T11:23:40;6.70;;;3.08;;
53666;SDS011;39568;51.026;5.468;2023-05-02T11:26:21;10.52;;;2.67;;
53666;SDS011;39568;51.026;5.468;2023-05-02T11:28:50;8.98;;;2.17;;
53666;SDS011;39568;51.026;5.468;2023-05-02T11:34:29;7.82;;;3.15;;
53666;SDS011;39568;51.026;5.468;2023-05-02T11:37:12;8.45;;;3.88;;
53666;SDS011;39568;51.026;5.468;2023-05-02T11:39:40;10.98;;;2.70;;
53666;SDS011;39568;51.026;5.468;2023-05-02T11:42:07;5.40;;;2.85;;
53666;SDS011;39568;51.026;5.468;2023-05-02T11:44:36;6.07;;;2.22;;
53666;SDS011;39568;51.026;5.468;2023-05-02T11:47:20;7.13;;;2.20;;
53666;SDS011;39568;51.026;5.468;2023-05-02T11:49:48;11.15;;;2.80;;
53666;SDS011;39568;51.026;5.468;2023-05-02T11:52:15;5.25;;;1.77;;
53666;SDS011;39568;51.026;5.468;2023-05-02T11:54:43;7.80;;;2.38;;
53666;SDS011;39568;51.026;5.468;2023-05-02T11:57:10;9.07;;;2.38;;
53666;SDS011;39568;51.026;5.468;2023-05-02T12:02:34;3.30;;;1.67;;
53666;SDS011;39568;51.026;5.468;2023-05-02T12:05:03;4.47;;;2.97;;
53666;SDS011;39568;51.026;5.468;2023-05-02T12:07:34;2.58;;;1.20;;
53666;SDS011;39568;51.026;5.468;2023-05-02T12:10:04;6.95;;;1.63;;
53666;SDS011;39568;51.026;5.468;2023-05-02T12:12:37;3.60;;;2.08;;
53666;SDS011;39568;51.026;5.468;2023-05-02T12:15:05;4.20;;;1.95;;
53666;SDS011;39568;51.026;5.468;2023-05-02T12:17:33;3.58;;;1.80;;
53666;SDS011;39568;51.026;5.468;2023-05-02T12:20:05;9.53;;;2.93;;
53666;SDS011;39568;51.026;5.468;2023-05-02T12:22:34;6.05;;;2.55;;
53666;SDS011;39568;51.026;5.468;2023-05-02T12:25:01;9.90;;;2.58;;
53666;SDS011;39568;51.026;5.468;2023-05-02T12:27:30;2.45;;;2.22;;
53666;SDS011;39568;51.026;5.468;2023-05-02T12:29:59;4.20;;;1.83;;
53666;SDS011;39568;51.026;5.468;2023-05-02T12:32:27;12.20;;;2.75;;
53666;SDS011;39568;51.026;5.468;2023-05-02T12:37:26;5.57;;;2.47;;
53666;SDS011;39568;51.026;5.468;2023-05-02T12:39:55;5.38;;;2.42;;
53666;SDS011;39568;51.026;5.468;2023-05-02T12:42:22;12.13;;;2.75;;
53666;SDS011;39568;51.026;5.468;2023-05-02T12:44:50;9.48;;;2.85;;
53666;SDS011;39568;51.026;5.468;2023-05-02T12:47:20;9.02;;;2.28;;
53666;SDS011;39568;51.026;5.468;2023-05-02T12:49:49;4.72;;;2.10;;
53666;SDS011;39568;51.026;5.468;2023-05-02T12:52:16;4.82;;;2.83;;
53666;SDS011;39568;51.026;5.468;2023-05-02T12:54:46;16.00;;;2.17;;
53666;SDS011;39568;51.026;5.468;2023-05-02T12:57:22;4.63;;;2.50;;
53666;SDS011;39568;51.026;5.468;2023-05-02T12:59:50;9.02;;;2.50;;
53666;SDS011;39568;51.026;5.468;2023-05-02T13:02:18;5.40;;;1.95;;
53666;SDS011;39568;51.026;5.468;2023-05-02T13:04:47;7.28;;;2.28;;
53666;SDS011;39568;51.026;5.468;2023-05-02T13:07:14;3.42;;;2.05;;
53666;SDS011;39568;51.026;5.468;2023-05-02T13:09:41;2.55;;;2.20;;
53666;SDS011;39568;51.026;5.468;2023-05-02T13:12:09;5.40;;;2.47;;
53666;SDS011;39568;51.026;5.468;2023-05-02T13:14:35;2.67;;;1.92;;
53666;SDS011;39568;51.026;5.468;2023-05-02T13:17:03;4.85;;;2.08;;
53666;SDS011;39568;51.026;5.468;2023-05-02T13:19:30;4.95;;;2.72;;
53666;SDS011;39568;51.026;5.468;2023-05-02T13:21:59;5.63;;;2.33;;
53666;SDS011;39568;51.026;5.468;2023-05-02T13:24:26;5.45;;;2.10;;
53666;SDS011;39568;51.026;5.468;2023-05-02T13:29:24;4.38;;;3.00;;
53666;SDS011;39568;51.026;5.468;2023-05-02T13:31:54;6.70;;;2.35;;
53666;SDS011;39568;51.026;5.468;2023-05-02T13:34:20;7.00;;;2.30;;
53666;SDS011;39568;51.026;5.468;2023-05-02T13:36:47;6.03;;;2.45;;
53666;SDS011;39568;51.026;5.468;2023-05-02T13:39:14;9.10;;;2.35;;
53666;SDS011;39568;51.026;5.468;2023-05-02T13:41:40;2.53;;;1.73;;
53666;SDS011;39568;51.026;5.468;2023-05-02T13:44:07;3.50;;;1.55;;
53666;SDS011;39568;51.026;5.468;2023-05-02T13:46:39;4.78;;;2.33;;
53666;SDS011;39568;51.026;5.468;2023-05-02T13:49:08;6.53;;;2.33;;
53666;SDS011;39568;51.026;5.468;2023-05-02T13:51:34;12.52;;;2.95;;
53666;SDS011;39568;51.026;5.468;2023-05-02T13:54:01;7.75;;;2.70;;
53666;SDS011;39568;51.026;5.468;2023-05-02T13:56:34;11.02;;;2.30;;
53666;SDS011;39568;51.026;5.468;2023-05-02T13:59:01;6.65;;;2.47;;
53666;SDS011;39568;51.026;5.468;2023-05-02T14:01:27;9.18;;;2.63;;
53666;SDS011;39568;51.026;5.468;2023-05-02T14:03:56;3.85;;;2.05;;
53666;SDS011;39568;51.026;5.468;2023-05-02T14:06:23;10.93;;;2.63;;
53666;SDS011;39568;51.026;5.468;2023-05-02T14:08:50;6.78;;;2.65;;
53666;SDS011;39568;51.026;5.468;2023-05-02T14:11:17;9.13;;;2.85;;
53666;SDS011;39568;51.026;5.468;2023-05-02T14:13:43;4.75;;;2.03;;
53666;SDS011;39568;51.026;5.468;2023-05-02T14:16:10;5.22;;;2.78;;
53666;SDS011;39568;51.026;5.468;2023-05-02T14:18:38;9.93;;;3.25;;
53666;SDS011;39568;51.026;5.468;2023-05-02T14:21:06;8.07;;;3.40;;
53666;SDS011;39568;51.026;5.468;2023-05-02T14:23:33;5.15;;;2.35;;
53666;SDS011;39568;51.026;5.468;2023-05-02T14:26:00;6.82;;;2.47;;
53666;SDS011;39568;51.026;5.468;2023-05-02T14:28:27;4.90;;;2.78;;
53666;SDS011;39568;51.026;5.468;2023-05-02T14:30:54;4.72;;;2.47;;
53666;SDS011;39568;51.026;5.468;2023-05-02T14:33:21;4.93;;;2.55;;
53666;SDS011;39568;51.026;5.468;2023-05-02T14:35:48;13.23;;;2.67;;
53666;SDS011;39568;51.026;5.468;2023-05-02T14:38:18;14.15;;;2.92;;
53666;SDS011;39568;51.026;5.468;2023-05-02T14:40:45;9.77;;;2.38;;
53666;SDS011;39568;51.026;5.468;2023-05-02T14:43:12;4.85;;;2.33;;
53666;SDS011;39568;51.026;5.468;2023-05-02T14:45:39;7.38;;;2.35;;
53666;SDS011;39568;51.026;5.468;2023-05-02T14:50:38;8.25;;;2.45;;
53666;SDS011;39568;51.026;5.468;2023-05-02T14:53:05;3.28;;;1.75;;
53666;SDS011;39568;51.026;5.468;2023-05-02T14:55:38;10.80;;;2.53;;
53666;SDS011;39568;51.026;5.468;2023-05-02T14:58:06;3.95;;;2.22;;
53666;SDS011;39568;51.026;5.468;2023-05-02T15:00:33;3.92;;;2.22;;
53666;SDS011;39568;51.026;5.468;2023-05-02T15:03:01;9.30;;;2.65;;
53666;SDS011;39568;51.026;5.468;2023-05-02T15:05:29;4.88;;;1.98;;
53666;SDS011;39568;51.026;5.468;2023-05-02T15:07:55;6.63;;;2.83;;
53666;SDS011;39568;51.026;5.468;2023-05-02T15:10:22;5.00;;;2.08;;
53666;SDS011;39568;51.026;5.468;2023-05-02T15:13:00;7.57;;;2.38;;
53666;SDS011;39568;51.026;5.468;2023-05-02T15:15:27;9.02;;;3.47;;
53666;SDS011;39568;51.026;5.468;2023-05-02T15:17:55;7.43;;;2.15;;